Time;durP1;ratioP1;P1;durP2;ratioP2;P2;SDS_P1;SDS_P2;PMS_P1;PMS_P2;Temp;Humidity;BMP_temperature;BMP_pressure;BME280_temperature;BME280_humidity;BME280_pressure;Samples;Min_cycle;Max_cycle;Signal;HPM_P1;HPM_P2
2023/08/05 00:00:23;;;;;;;;;16.25;11.75;;;;;27.42;40.57;100144.06;146636;566;45020;-79
2023/08/05 00:03:18;;;;;;;;;11.67;11.67;;;;;27.38;40.91;100137.94;146634;568;45020;-80
2023/08/05 00:06:15;;;;;;;;;8.33;8.33;;;;;27.35;41.49;100146.91;146636;607;45021;-77
2023/08/05 00:09:18;;;;;;;;;8.67;8.67;;;;;27.31;42.39;100139.91;146640;577;45016;-81
2023/08/05 00:12:21;;;;;;;;;9.00;9.00;;;;;27.28;42.74;100136.44;146640;564;45021;-80
2023/08/05 00:15:29;;;;;;;;;;;;;;;;;;;;;
2023/08/05 00:18:28;;;;;;;;;12.67;11.67;;;;;27.24;42.99;100138.31;146642;606;46011;-83
2023/08/05 00:21:30;;;;;;;;;13.00;11.33;;;;;27.25;42.74;100128.53;146632;580;45915;-81
2023/08/05 00:24:38;;;;;;;;;9.67;9.67;;;;;27.05;42.91;100105.97;146634;580;45020;-80
2023/08/05 00:27:31;;;;;;;;;11.25;10.75;;;;;27.17;42.51;100124.31;146641;579;45916;-77
2023/08/05 00:30:35;;;;;;;;;11.00;10.67;;;;;27.16;43.25;100127.00;146636;645;45028;-80
2023/08/05 00:33:53;;;;;;;;;12.67;10.67;;;;;27.17;43.26;100126.09;146635;599;46013;-78
2023/08/05 00:37:03;;;;;;;;;10.67;9.67;;;;;27.10;43.34;100113.81;146638;577;45010;-80
2023/08/05 00:40:12;;;;;;;;;;;;;;;;;;;;;
2023/08/05 00:43:15;;;;;;;;;10.00;10.00;;;;;27.14;43.62;100124.38;146642;652;45020;-82
2023/08/05 00:46:41;;;;;;;;;;;;;;;;;;;;;
2023/08/05 00:49:59;;;;;;;;;13.00;12.00;;;;;27.16;42.96;100135.84;146636;573;45014;-83
2023/08/05 00:53:00;;;;;;;;;10.33;10.33;;;;;27.10;43.19;100125.34;146633;611;45914;-86
2023/08/05 00:56:08;;;;;;;;;12.33;9.67;;;;;26.35;44.35;100001.34;146634;671;45029;-81
2023/08/05 00:59:14;;;;;;;;;9.67;9.33;;;;;26.39;44.31;99992.41;146616;701;46016;-84
2023/08/05 01:02:09;;;;;;;;;10.75;9.00;;;;;27.22;42.95;100116.19;146621;605;46012;-81
2023/08/05 01:05:04;;;;;;;;;10.67;9.00;;;;;27.26;42.09;100115.22;146615;564;46017;-80
2023/08/05 01:08:07;;;;;;;;;13.00;12.00;;;;;27.30;41.42;100119.53;146620;574;46020;-80
2023/08/05 01:11:25;;;;;;;;;12.33;10.67;;;;;26.10;42.77;99908.09;146612;569;46013;-81
2023/08/05 01:14:29;;;;;;;;;12.00;9.00;;;;;27.33;42.08;100110.59;146609;730;49020;-82
2023/08/05 01:17:28;;;;;;;;;11.33;10.67;;;;;27.39;42.85;100107.75;146618;612;46915;-81
2023/08/05 01:20:28;;;;;;;;;9.50;9.50;;;;;27.47;42.39;100112.84;146612;680;46021;-83
2023/08/05 01:23:43;;;;;;;;;11.67;9.67;;;;;27.56;43.00;100107.25;146616;623;46012;-81
2023/08/05 01:26:52;;;;;;;;;;;;;;;;;;;;;
2023/08/05 01:30:06;;;;;;;;;10.25;10.25;;;;;27.63;41.63;100109.72;146615;653;46912;-78
2023/08/05 01:33:12;;;;;;;;;11.00;10.00;;;;;27.55;42.71;100106.41;146616;615;46029;-80
2023/08/05 01:36:06;;;;;;;;;11.00;11.00;;;;;27.46;42.32;100103.12;146610;571;47012;-80
2023/08/05 01:39:05;;;;;;;;;9.75;9.50;;;;;27.37;43.53;100107.78;146613;665;46020;-80
2023/08/05 01:42:18;;;;;;;;;12.25;10.25;;;;;27.33;45.47;100106.13;146615;595;46016;-80
2023/08/05 01:45:18;;;;;;;;;17.25;12.50;;;;;27.34;46.68;100107.88;146611;598;46020;-81
2023/08/05 01:48:42;;;;;;;;;;;;;;;;;;;;;
2023/08/05 01:51:49;;;;;;;;;13.00;13.00;;;;;27.42;46.56;100105.00;146614;565;46010;-82
2023/08/05 01:55:03;;;;;;;;;10.67;9.67;;;;;27.17;46.53;100046.25;146607;612;47014;-81
2023/08/05 01:58:00;;;;;;;;;11.75;11.75;;;;;27.59;46.66;100107.19;146616;670;47014;-78
2023/08/05 02:01:08;;;;;;;;;11.33;10.67;;;;;27.66;46.49;100099.88;146611;581;46012;-85
2023/08/05 02:04:01;;;;;;;;;12.33;11.67;;;;;27.57;46.33;100069.97;146615;689;46010;-85
2023/08/05 02:07:03;;;;;;;;;14.00;11.50;;;;;27.69;46.34;100084.69;146610;572;47014;-86
2023/08/05 02:10:00;;;;;;;;;12.33;11.67;;;;;27.63;46.48;100085.75;146613;571;46015;-86
2023/08/05 02:13:03;;;;;;;;;9.67;9.33;;;;;27.61;46.89;100092.91;146611;661;46016;-85
2023/08/05 02:15:56;;;;;;;;;11.33;10.00;;;;;27.67;46.47;100094.53;146623;684;47010;-82
2023/08/05 02:18:57;;;;;;;;;12.00;11.00;;;;;27.72;46.62;100089.06;146612;692;46017;-83
2023/08/05 02:22:03;;;;;;;;;11.67;11.00;;;;;27.71;46.04;100082.84;146613;581;46020;-85
2023/08/05 02:24:59;;;;;;;;;9.67;9.67;;;;;27.61;45.26;100082.25;146610;585;47016;-84
2023/08/05 02:28:02;;;;;;;;;10.67;10.67;;;;;27.52;45.09;100084.31;146619;630;46020;-86
2023/08/05 02:30:59;;;;;;;;;11.00;10.67;;;;;27.46;43.70;100092.47;146611;570;46012;-83
2023/08/05 02:33:58;;;;;;;;;11.33;11.33;;;;;27.38;43.69;100093.56;146614;695;46021;-85
2023/08/05 02:36:53;;;;;;;;;10.00;10.00;;;;;27.29;43.98;100084.94;146611;582;46012;-84
2023/08/05 02:39:54;;;;;;;;;11.00;11.00;;;;;27.23;44.05;100087.78;146613;592;46020;-85
2023/08/05 02:42:51;;;;;;;;;10.33;9.33;;;;;27.20;43.93;100083.44;146612;625;46041;-88
2023/08/05 02:46:03;;;;;;;;;11.00;10.33;;;;;26.23;44.69;99918.41;146622;707;46010;-85
2023/08/05 02:49:08;;;;;;;;;10.00;9.33;;;;;26.35;45.02;99962.34;146609;663;47012;-87
2023/08/05 02:52:02;;;;;;;;;11.67;11.67;;;;;27.06;45.32;100094.41;146623;594;46010;-86
2023/08/05 02:55:09;;;;;;;;;11.67;11.67;;;;;27.09;44.80;100099.62;146609;592;46016;-86
2023/08/05 02:58:20;;;;;;;;;9.67;8.33;;;;;26.38;44.71;99980.00;146615;642;46010;-84
2023/08/05 03:01:40;;;;;;;;;;;;;;;;;;;;;
2023/08/05 03:04:52;;;;;;;;;9.67;9.00;;;;;26.83;45.11;100103.00;146621;635;47008;-88
2023/08/05 03:08:01;;;;;;;;;9.00;9.00;;;;;26.77;45.21;100110.25;146617;563;46016;-86
2023/08/05 03:11:12;;;;;;;;;9.67;9.67;;;;;26.70;45.00;100113.06;146622;597;46010;-87
2023/08/05 03:14:14;;;;;;;;;12.00;10.67;;;;;26.58;46.00;100113.38;146614;563;47012;-83
2023/08/05 03:17:07;;;;;;;;;12.00;10.00;;;;;26.48;46.20;100115.37;146607;576;46011;-89
2023/08/05 03:20:08;;;;;;;;;9.67;9.67;;;;;26.44;46.62;100113.66;146610;572;46016;-89
2023/08/05 03:23:07;;;;;;;;;10.33;10.33;;;;;26.44;46.71;100104.81;146621;651;46020;-86
2023/08/05 03:26:10;;;;;;;;;12.33;11.67;;;;;26.47;47.01;100110.91;146609;577;47026;-85
2023/08/05 03:29:12;;;;;;;;;10.67;9.67;;;;;26.51;46.61;100109.09;146616;602;46010;-86
2023/08/05 03:32:12;;;;;;;;;9.33;9.33;;;;;26.51;45.89;100102.91;146618;596;46016;-81
2023/08/05 03:35:08;;;;;;;;;11.00;10.00;;;;;26.46;46.14;100103.84;146624;574;46010;-78
2023/08/05 03:38:14;;;;;;;;;13.00;10.00;;;;;26.41;46.06;100112.84;146610;632;46012;-75
2023/08/05 03:41:12;;;;;;;;;10.67;10.67;;;;;26.38;46.06;100119.09;146616;661;46010;-78
2023/08/05 03:44:12;;;;;;;;;11.25;11.25;;;;;26.39;45.98;100115.56;146611;609;46014;-80
2023/08/05 03:47:22;;;;;;;;;12.33;12.00;;;;;25.60;46.39;99980.06;146611;627;46021;-78
2023/08/05 03:50:53;;;;;;;;;10.33;10.33;;;;;26.31;47.00;100109.53;146612;576;46016;-78
2023/08/05 03:53:52;;;;;;;;;13.00;9.00;;;;;26.32;47.58;100118.37;146615;603;46020;-80
2023/08/05 03:56:47;;;;;;;;;10.00;9.00;;;;;26.40;47.36;100121.75;146618;594;46014;-81
2023/08/05 03:59:49;;;;;;;;;12.67;11.00;;;;;26.46;47.63;100117.16;146621;686;46020;-83
2023/08/05 04:02:51;;;;;;;;;11.00;10.00;;;;;26.54;47.46;100121.44;146607;573;46016;-83
2023/08/05 04:05:49;;;;;;;;;10.67;10.33;;;;;26.51;47.26;100109.09;146612;598;46020;-84
2023/08/05 04:08:53;;;;;;;;;11.67;11.00;;;;;26.44;47.39;100105.66;146613;565;46034;-85
2023/08/05 04:11:57;;;;;;;;;12.67;11.67;;;;;26.41;47.19;100116.38;146611;564;46021;-84
2023/08/05 04:15:02;;;;;;;;;12.00;11.00;;;;;26.40;47.67;100114.63;146612;588;46012;-81
2023/08/05 04:18:08;;;;;;;;;12.33;11.67;;;;;25.62;47.64;99978.25;146609;579;47010;-82
2023/08/05 04:21:40;;;;;;;;;;;;;;;;;;;;;
2023/08/05 04:24:36;;;;;;;;;10.67;9.67;;;;;26.34;47.78;100095.31;146614;587;46030;-77
2023/08/05 04:27:37;;;;;;;;;14.00;13.50;;;;;26.35;48.07;100086.41;146613;567;46016;-81
2023/08/05 04:30:36;;;;;;;;;13.00;11.25;;;;;26.45;48.19;100101.25;146614;703;46030;-85
2023/08/05 04:33:42;;;;;;;;;11.75;11.25;;;;;26.62;48.34;100100.88;146606;577;46012;-84
2023/08/05 04:36:54;;;;;;;;;10.00;10.00;;;;;26.90;47.67;100107.22;146613;591;47010;-81
2023/08/05 04:39:56;;;;;;;;;11.00;9.00;;;;;27.16;48.37;100098.59;146610;596;46013;-84
2023/08/05 04:42:53;;;;;;;;;11.50;10.50;;;;;27.45;47.77;100093.41;146622;583;46010;-83
2023/08/05 04:45:50;;;;;;;;;12.00;12.00;;;;;27.70;46.29;100094.44;146610;570;46017;-84
2023/08/05 04:49:09;;;;;;;;;12.00;12.00;;;;;27.91;45.46;100098.28;146607;662;46014;-85
2023/08/05 04:52:05;;;;;;;;;11.67;10.33;;;;;28.18;45.56;100090.38;146608;615;46016;-85
2023/08/05 04:55:01;;;;;;;;;11.33;11.33;;;;;28.43;45.21;100096.69;146607;583;47011;-85
2023/08/05 04:58:10;;;;;;;;;10.67;9.67;;;;;28.65;44.58;100085.31;146628;625;45916;-84
2023/08/05 05:01:05;;;;;;;;;12.00;10.00;;;;;28.85;45.50;100085.53;146634;570;45020;-86
2023/08/05 05:04:09;;;;;;;;;13.33;12.67;;;;;29.06;43.57;100083.91;146632;612;45031;-86
2023/08/05 05:07:04;;;;;;;;;10.67;10.00;;;;;29.20;45.43;100072.78;146635;619;46010;-82
2023/08/05 05:09:57;;;;;;;;;12.00;10.33;;;;;29.46;44.25;100087.84;146633;599;45017;-83
2023/08/05 05:13:03;;;;;;;;;12.67;9.33;;;;;29.69;44.00;100097.72;146635;586;45020;-84
2023/08/05 05:16:11;;;;;;;;;13.33;13.33;;;;;29.10;43.87;99970.78;146630;628;46916;-83
2023/08/05 05:19:15;;;;;;;;;12.00;11.00;;;;;29.95;43.29;100098.53;146630;599;45020;-84
